sensor_id;sensor_type;location;lat;lon;timestamp;temperature;humidity
39665;DHT22;26679;50.872;4.332;2024-02-21T00:01:18;20.30;72.30
39665;DHT22;26679;50.872;4.332;2024-02-21T00:03:45;20.30;72.30
39665;DHT22;26679;50.872;4.332;2024-02-21T00:06:10;20.30;72.40
39665;DHT22;26679;50.872;4.332;2024-02-21T00:08:36;20.30;72.50
39665;DHT22;26679;50.872;4.332;2024-02-21T00:11:01;20.30;72.50
39665;DHT22;26679;50.872;4.332;2024-02-21T00:13:27;20.20;72.50
39665;DHT22;26679;50.872;4.332;2024-02-21T00:15:52;20.20;72.50
39665;DHT22;26679;50.872;4.332;2024-02-21T00:18:18;20.20;72.60
39665;DHT22;26679;50.872;4.332;2024-02-21T00:20:43;20.20;72.60
39665;DHT22;26679;50.872;4.332;2024-02-21T00:23:09;20.20;72.70
39665;DHT22;26679;50.872;4.332;2024-02-21T00:25:34;20.20;72.70
39665;DHT22;26679;50.872;4.332;2024-02-21T00:28:00;20.20;72.70
39665;DHT22;26679;50.872;4.332;2024-02-21T00:30:25;20.20;72.70
39665;DHT22;26679;50.872;4.332;2024-02-21T00:32:51;20.20;72.80
39665;DHT22;26679;50.872;4.332;2024-02-21T00:35:16;20.10;72.70
39665;DHT22;26679;50.872;4.332;2024-02-21T00:37:42;20.10;72.80
39665;DHT22;26679;50.872;4.332;2024-02-21T00:40:07;20.10;72.90
39665;DHT22;26679;50.872;4.332;2024-02-21T00:42:33;20.10;72.90
39665;DHT22;26679;50.872;4.332;2024-02-21T00:44:59;20.10;72.90
39665;DHT22;26679;50.872;4.332;2024-02-21T00:47:24;20.00;72.90
39665;DHT22;26679;50.872;4.332;2024-02-21T00:49:50;20.00;72.90
39665;DHT22;26679;50.872;4.332;2024-02-21T00:52:15;20.00;73.00
39665;DHT22;26679;50.872;4.332;2024-02-21T00:54:41;20.00;73.00
39665;DHT22;26679;50.872;4.332;2024-02-21T00:57:06;20.00;73.10
39665;DHT22;26679;50.872;4.332;2024-02-21T00:59:32;20.00;73.10
39665;DHT22;26679;50.872;4.332;2024-02-21T01:01:57;19.90;73.10
39665;DHT22;26679;50.872;4.332;2024-02-21T01:04:23;19.90;73.10
39665;DHT22;26679;50.872;4.332;2024-02-21T01:06:49;19.90;73.10
39665;DHT22;26679;50.872;4.332;2024-02-21T01:09:15;19.90;73.70
39665;DHT22;26679;50.872;4.332;2024-02-21T01:11:40;19.90;73.20
39665;DHT22;26679;50.872;4.332;2024-02-21T01:14:06;19.90;73.30
39665;DHT22;26679;50.872;4.332;2024-02-21T01:16:31;19.90;73.30
39665;DHT22;26679;50.872;4.332;2024-02-21T01:18:57;19.80;73.20
39665;DHT22;26679;50.872;4.332;2024-02-21T01:21:22;19.80;73.30
39665;DHT22;26679;50.872;4.332;2024-02-21T01:23:48;19.80;73.30
39665;DHT22;26679;50.872;4.332;2024-02-21T01:26:13;19.80;73.30
39665;DHT22;26679;50.872;4.332;2024-02-21T01:28:41;19.80;73.30
39665;DHT22;26679;50.872;4.332;2024-02-21T01:31:06;19.80;73.30
39665;DHT22;26679;50.872;4.332;2024-02-21T01:33:32;19.80;73.40
39665;DHT22;26679;50.872;4.332;2024-02-21T01:36:03;19.70;73.30
39665;DHT22;26679;50.872;4.332;2024-02-21T01:38:29;19.70;73.30
39665;DHT22;26679;50.872;4.332;2024-02-21T01:40:55;19.70;73.40
39665;DHT22;26679;50.872;4.332;2024-02-21T01:43:20;19.70;73.40
39665;DHT22;26679;50.872;4.332;2024-02-21T01:45:47;19.70;73.40
39665;DHT22;26679;50.872;4.332;2024-02-21T01:48:13;19.70;73.50
39665;DHT22;26679;50.872;4.332;2024-02-21T01:50:39;19.70;73.50
39665;DHT22;26679;50.872;4.332;2024-02-21T01:53:04;19.60;73.50
39665;DHT22;26679;50.872;4.332;2024-02-21T01:55:30;19.60;73.50
39665;DHT22;26679;50.872;4.332;2024-02-21T01:57:56;19.60;73.50
39665;DHT22;26679;50.872;4.332;2024-02-21T02:00:21;19.60;73.50
39665;DHT22;26679;50.872;4.332;2024-02-21T02:02:47;19.60;73.60
39665;DHT22;26679;50.872;4.332;2024-02-21T02:05:14;19.50;73.50
39665;DHT22;26679;50.872;4.332;2024-02-21T02:07:40;19.50;73.50
39665;DHT22;26679;50.872;4.332;2024-02-21T02:10:05;19.50;73.60
39665;DHT22;26679;50.872;4.332;2024-02-21T02:12:31;19.50;73.60
39665;DHT22;26679;50.872;4.332;2024-02-21T02:15:00;19.50;73.60
39665;DHT22;26679;50.872;4.332;2024-02-21T02:17:26;19.50;73.60
39665;DHT22;26679;50.872;4.332;2024-02-21T02:19:51;19.50;73.70
39665;DHT22;26679;50.872;4.332;2024-02-21T02:22:18;19.50;73.70
39665;DHT22;26679;50.872;4.332;2024-02-21T02:24:46;19.50;73.80
39665;DHT22;26679;50.872;4.332;2024-02-21T02:27:12;19.40;73.70
39665;DHT22;26679;50.872;4.332;2024-02-21T02:29:37;19.40;73.70
39665;DHT22;26679;50.872;4.332;2024-02-21T02:32:03;19.40;73.70
39665;DHT22;26679;50.872;4.332;2024-02-21T02:34:28;19.40;73.70
39665;DHT22;26679;50.872;4.332;2024-02-21T02:36:53;19.40;73.80
39665;DHT22;26679;50.872;4.332;2024-02-21T02:39:20;19.40;73.80
39665;DHT22;26679;50.872;4.332;2024-02-21T02:41:45;19.40;73.80
39665;DHT22;26679;50.872;4.332;2024-02-21T02:44:10;19.40;73.90
39665;DHT22;26679;50.872;4.332;2024-02-21T02:46:36;19.30;73.80
39665;DHT22;26679;50.872;4.332;2024-02-21T02:49:01;19.30;73.80
39665;DHT22;26679;50.872;4.332;2024-02-21T02:51:27;19.30;73.80
39665;DHT22;26679;50.872;4.332;2024-02-21T02:53:52;19.30;73.80
39665;DHT22;26679;50.872;4.332;2024-02-21T02:56:18;19.30;73.90
39665;DHT22;26679;50.872;4.332;2024-02-21T02:58:43;19.30;73.90
39665;DHT22;26679;50.872;4.332;2024-02-21T03:01:09;19.30;73.90
39665;DHT22;26679;50.872;4.332;2024-02-21T03:03:35;19.30;73.80
39665;DHT22;26679;50.872;4.332;2024-02-21T03:06:01;19.30;73.90
39665;DHT22;26679;50.872;4.332;2024-02-21T03:08:26;19.30;73.90
39665;DHT22;26679;50.872;4.332;2024-02-21T03:10:52;19.30;73.90
39665;DHT22;26679;50.872;4.332;2024-02-21T03:13:17;19.30;74.00
39665;DHT22;26679;50.872;4.332;2024-02-21T03:15:42;19.30;73.90
39665;DHT22;26679;50.872;4.332;2024-02-21T03:18:08;19.30;73.90
39665;DHT22;26679;50.872;4.332;2024-02-21T03:20:33;19.30;73.90
39665;DHT22;26679;50.872;4.332;2024-02-21T03:22:59;19.30;73.90
39665;DHT22;26679;50.872;4.332;2024-02-21T03:25:24;19.40;73.90
39665;DHT22;26679;50.872;4.332;2024-02-21T03:27:50;19.40;73.80
39665;DHT22;26679;50.872;4.332;2024-02-21T03:30:17;19.40;73.80
39665;DHT22;26679;50.872;4.332;2024-02-21T03:32:42;19.50;73.80
39665;DHT22;26679;50.872;4.332;2024-02-21T03:35:07;19.50;74.30
39665;DHT22;26679;50.872;4.332;2024-02-21T03:37:33;19.60;73.70
39665;DHT22;26679;50.872;4.332;2024-02-21T03:39:58;19.60;73.60
39665;DHT22;26679;50.872;4.332;2024-02-21T03:42:24;19.70;73.50
39665;DHT22;26679;50.872;4.332;2024-02-21T03:44:50;19.80;73.40
39665;DHT22;26679;50.872;4.332;2024-02-21T03:47:15;19.90;73.30
39665;DHT22;26679;50.872;4.332;2024-02-21T03:49:41;19.90;73.10
39665;DHT22;26679;50.872;4.332;2024-02-21T03:52:07;20.00;73.10
39665;DHT22;26679;50.872;4.332;2024-02-21T03:54:33;20.10;73.00
39665;DHT22;26679;50.872;4.332;2024-02-21T03:56:59;20.20;72.90
39665;DHT22;26679;50.872;4.332;2024-02-21T03:59:24;20.20;72.80
39665;DHT22;26679;50.872;4.332;2024-02-21T04:01:53;20.20;72.70
39665;DHT22;26679;50.872;4.332;2024-02-21T04:04:18;20.30;72.60
39665;DHT22;26679;50.872;4.332;2024-02-21T04:06:50;20.40;72.50
39665;DHT22;26679;50.872;4.332;2024-02-21T04:09:16;20.40;72.40
39665;DHT22;26679;50.872;4.332;2024-02-21T04:11:41;20.40;72.30
39665;DHT22;26679;50.872;4.332;2024-02-21T04:14:07;20.50;72.30
39665;DHT22;26679;50.872;4.332;2024-02-21T04:16:32;20.50;72.20
39665;DHT22;26679;50.872;4.332;2024-02-21T04:18:58;20.50;72.10
39665;DHT22;26679;50.872;4.332;2024-02-21T04:21:23;20.60;72.10
39665;DHT22;26679;50.872;4.332;2024-02-21T04:23:50;20.60;71.90
39665;DHT22;26679;50.872;4.332;2024-02-21T04:26:15;20.70;71.90
39665;DHT22;26679;50.872;4.332;2024-02-21T04:28:41;20.70;71.80
39665;DHT22;26679;50.872;4.332;2024-02-21T04:31:06;20.70;71.70
39665;DHT22;26679;50.872;4.332;2024-02-21T04:33:32;20.70;71.70
39665;DHT22;26679;50.872;4.332;2024-02-21T04:35:57;20.70;71.70
39665;DHT22;26679;50.872;4.332;2024-02-21T04:38:25;20.80;71.70
39665;DHT22;26679;50.872;4.332;2024-02-21T04:40:51;20.80;71.60
39665;DHT22;26679;50.872;4.332;2024-02-21T04:43:16;20.80;71.60
39665;DHT22;26679;50.872;4.332;2024-02-21T04:45:42;20.90;71.50
39665;DHT22;26679;50.872;4.332;2024-02-21T04:48:07;20.80;71.50
39665;DHT22;26679;50.872;4.332;2024-02-21T04:50:33;20.90;71.50
39665;DHT22;26679;50.872;4.332;2024-02-21T04:52:58;20.90;71.40
39665;DHT22;26679;50.872;4.332;2024-02-21T04:55:24;20.90;71.40
39665;DHT22;26679;50.872;4.332;2024-02-21T04:57:49;20.90;71.40
39665;DHT22;26679;50.872;4.332;2024-02-21T05:00:15;20.90;71.30
39665;DHT22;26679;50.872;4.332;2024-02-21T05:02:40;20.90;71.30
39665;DHT22;26679;50.872;4.332;2024-02-21T05:05:06;20.90;71.30
39665;DHT22;26679;50.872;4.332;2024-02-21T05:07:31;21.00;71.30
39665;DHT22;26679;50.872;4.332;2024-02-21T05:09:57;21.00;71.20
39665;DHT22;26679;50.872;4.332;2024-02-21T05:12:22;21.00;71.20
39665;DHT22;26679;50.872;4.332;2024-02-21T05:14:48;21.00;71.10
39665;DHT22;26679;50.872;4.332;2024-02-21T05:17:14;21.00;71.10
39665;DHT22;26679;50.872;4.332;2024-02-21T05:19:40;21.00;71.00
39665;DHT22;26679;50.872;4.332;2024-02-21T05:22:05;21.00;71.00
39665;DHT22;26679;50.872;4.332;2024-02-21T05:24:31;21.00;71.00
39665;DHT22;26679;50.872;4.332;2024-02-21T05:26:56;21.10;71.00
39665;DHT22;26679;50.872;4.332;2024-02-21T05:29:22;21.10;70.90
39665;DHT22;26679;50.872;4.332;2024-02-21T05:34:16;21.10;70.80
39665;DHT22;26679;50.872;4.332;2024-02-21T05:36:41;21.10;70.80
39665;DHT22;26679;50.872;4.332;2024-02-21T05:39:07;21.10;70.70
39665;DHT22;26679;50.872;4.332;2024-02-21T05:41:32;21.10;70.70
39665;DHT22;26679;50.872;4.332;2024-02-21T05:43:58;21.20;70.80
39665;DHT22;26679;50.872;4.332;2024-02-21T05:46:23;21.20;70.70
39665;DHT22;26679;50.872;4.332;2024-02-21T05:48:49;21.20;70.70
39665;DHT22;26679;50.872;4.332;2024-02-21T05:51:15;21.20;70.60
39665;DHT22;26679;50.872;4.332;2024-02-21T05:53:40;21.20;70.60
39665;DHT22;26679;50.872;4.332;2024-02-21T05:56:12;21.20;70.60
39665;DHT22;26679;50.872;4.332;2024-02-21T05:58:38;21.20;70.50
39665;DHT22;26679;50.872;4.332;2024-02-21T06:01:03;21.20;70.50
39665;DHT22;26679;50.872;4.332;2024-02-21T06:03:29;21.20;70.50
39665;DHT22;26679;50.872;4.332;2024-02-21T06:05:55;21.20;70.40
39665;DHT22;26679;50.872;4.332;2024-02-21T06:08:21;21.20;70.40
39665;DHT22;26679;50.872;4.332;2024-02-21T06:10:46;21.20;70.40
39665;DHT22;26679;50.872;4.332;2024-02-21T06:13:13;21.20;70.30
39665;DHT22;26679;50.872;4.332;2024-02-21T06:15:39;21.20;70.30
39665;DHT22;26679;50.872;4.332;2024-02-21T06:18:05;21.20;70.30
39665;DHT22;26679;50.872;4.332;2024-02-21T06:20:30;21.20;70.30
39665;DHT22;26679;50.872;4.332;2024-02-21T06:22:56;21.20;70.30
39665;DHT22;26679;50.872;4.332;2024-02-21T06:25:22;21.20;70.30
39665;DHT22;26679;50.872;4.332;2024-02-21T06:27:48;21.20;70.30
39665;DHT22;26679;50.872;4.332;2024-02-21T06:30:13;21.20;70.30
39665;DHT22;26679;50.872;4.332;2024-02-21T06:32:39;21.20;70.30
39665;DHT22;26679;50.872;4.332;2024-02-21T06:35:04;21.20;70.40
39665;DHT22;26679;50.872;4.332;2024-02-21T06:37:30;21.20;70.40
39665;DHT22;26679;50.872;4.332;2024-02-21T06:39:57;21.10;70.30
39665;DHT22;26679;50.872;4.332;2024-02-21T06:42:24;21.20;70.40
39665;DHT22;26679;50.872;4.332;2024-02-21T06:44:50;21.20;70.40
39665;DHT22;26679;50.872;4.332;2024-02-21T06:47:15;21.20;70.40
39665;DHT22;26679;50.872;4.332;2024-02-21T06:49:41;21.30;70.40
39665;DHT22;26679;50.872;4.332;2024-02-21T06:52:07;21.20;70.40
39665;DHT22;26679;50.872;4.332;2024-02-21T06:54:32;21.30;70.50
39665;DHT22;26679;50.872;4.332;2024-02-21T06:56:59;21.30;70.60
39665;DHT22;26679;50.872;4.332;2024-02-21T06:59:24;21.30;70.60
39665;DHT22;26679;50.872;4.332;2024-02-21T07:01:53;21.30;70.60
39665;DHT22;26679;50.872;4.332;2024-02-21T07:04:20;21.20;70.70
39665;DHT22;26679;50.872;4.332;2024-02-21T07:06:45;21.30;70.80
39665;DHT22;26679;50.872;4.332;2024-02-21T07:09:11;21.30;70.80
39665;DHT22;26679;50.872;4.332;2024-02-21T07:11:36;21.30;70.80
39665;DHT22;26679;50.872;4.332;2024-02-21T07:14:02;21.30;70.90
39665;DHT22;26679;50.872;4.332;2024-02-21T07:16:27;21.40;71.00
39665;DHT22;26679;50.872;4.332;2024-02-21T07:18:54;21.40;71.00
39665;DHT22;26679;50.872;4.332;2024-02-21T07:21:20;21.40;71.00
39665;DHT22;26679;50.872;4.332;2024-02-21T07:23:45;21.40;71.10
39665;DHT22;26679;50.872;4.332;2024-02-21T07:26:11;21.30;71.10
39665;DHT22;26679;50.872;4.332;2024-02-21T07:28:36;21.40;71.20
39665;DHT22;26679;50.872;4.332;2024-02-21T07:31:03;21.40;71.20
39665;DHT22;26679;50.872;4.332;2024-02-21T07:33:28;21.40;71.30
39665;DHT22;26679;50.872;4.332;2024-02-21T07:35:56;21.40;71.40
39665;DHT22;26679;50.872;4.332;2024-02-21T07:38:21;21.40;71.40
39665;DHT22;26679;50.872;4.332;2024-02-21T07:40:47;21.30;71.40
39665;DHT22;26679;50.872;4.332;2024-02-21T07:43:13;21.40;71.50
39665;DHT22;26679;50.872;4.332;2024-02-21T07:45:38;21.30;71.70
39665;DHT22;26679;50.872;4.332;2024-02-21T07:48:07;21.40;72.00
39665;DHT22;26679;50.872;4.332;2024-02-21T07:50:32;21.30;72.20
39665;DHT22;26679;50.872;4.332;2024-02-21T07:52:58;21.30;72.50
39665;DHT22;26679;50.872;4.332;2024-02-21T07:55:23;21.30;72.60
39665;DHT22;26679;50.872;4.332;2024-02-21T07:57:49;21.40;72.80
39665;DHT22;26679;50.872;4.332;2024-02-21T08:00:15;21.40;73.10
39665;DHT22;26679;50.872;4.332;2024-02-21T08:02:48;21.40;73.20
39665;DHT22;26679;50.872;4.332;2024-02-21T08:05:13;21.40;73.30
39665;DHT22;26679;50.872;4.332;2024-02-21T08:07:39;21.40;73.30
39665;DHT22;26679;50.872;4.332;2024-02-21T08:10:04;21.40;73.40
39665;DHT22;26679;50.872;4.332;2024-02-21T08:12:32;21.40;73.50
39665;DHT22;26679;50.872;4.332;2024-02-21T08:14:58;21.50;73.70
39665;DHT22;26679;50.872;4.332;2024-02-21T08:17:23;21.50;73.80
39665;DHT22;26679;50.872;4.332;2024-02-21T08:19:49;21.50;73.90
39665;DHT22;26679;50.872;4.332;2024-02-21T08:22:14;21.60;74.10
39665;DHT22;26679;50.872;4.332;2024-02-21T08:24:40;21.60;74.20
39665;DHT22;26679;50.872;4.332;2024-02-21T08:27:05;21.60;74.30
39665;DHT22;26679;50.872;4.332;2024-02-21T08:29:31;21.70;74.40
39665;DHT22;26679;50.872;4.332;2024-02-21T08:31:56;21.60;75.00
39665;DHT22;26679;50.872;4.332;2024-02-21T08:34:22;21.70;74.60
39665;DHT22;26679;50.872;4.332;2024-02-21T08:39:17;21.70;74.70
39665;DHT22;26679;50.872;4.332;2024-02-21T08:41:42;21.70;74.80
39665;DHT22;26679;50.872;4.332;2024-02-21T08:44:08;21.70;74.60
39665;DHT22;26679;50.872;4.332;2024-02-21T08:46:33;21.80;74.70
39665;DHT22;26679;50.872;4.332;2024-02-21T08:48:59;21.70;74.50
39665;DHT22;26679;50.872;4.332;2024-02-21T08:51:24;21.80;74.50
39665;DHT22;26679;50.872;4.332;2024-02-21T08:53:50;21.80;74.50
39665;DHT22;26679;50.872;4.332;2024-02-21T08:56:15;21.80;74.50
39665;DHT22;26679;50.872;4.332;2024-02-21T08:58:41;21.90;74.50
39665;DHT22;26679;50.872;4.332;2024-02-21T09:01:07;21.90;74.50
39665;DHT22;26679;50.872;4.332;2024-02-21T09:03:36;21.90;74.40
39665;DHT22;26679;50.872;4.332;2024-02-21T09:06:01;21.90;74.20
39665;DHT22;26679;50.872;4.332;2024-02-21T09:08:27;21.90;73.90
39665;DHT22;26679;50.872;4.332;2024-02-21T09:10:53;21.90;73.70
39665;DHT22;26679;50.872;4.332;2024-02-21T09:13:18;21.90;73.50
39665;DHT22;26679;50.872;4.332;2024-02-21T09:15:44;21.90;73.30
39665;DHT22;26679;50.872;4.332;2024-02-21T09:18:10;21.90;73.10
39665;DHT22;26679;50.872;4.332;2024-02-21T09:20:35;21.90;73.00
39665;DHT22;26679;50.872;4.332;2024-02-21T09:23:01;21.90;72.80
39665;DHT22;26679;50.872;4.332;2024-02-21T09:25:26;21.90;72.60
39665;DHT22;26679;50.872;4.332;2024-02-21T09:27:53;21.90;72.60
39665;DHT22;26679;50.872;4.332;2024-02-21T09:30:19;21.90;72.60
39665;DHT22;26679;50.872;4.332;2024-02-21T09:32:44;22.00;72.80
39665;DHT22;26679;50.872;4.332;2024-02-21T09:35:10;22.00;72.80
39665;DHT22;26679;50.872;4.332;2024-02-21T09:37:35;22.00;72.90
39665;DHT22;26679;50.872;4.332;2024-02-21T09:40:01;22.00;73.00
39665;DHT22;26679;50.872;4.332;2024-02-21T09:42:45;22.00;73.10
39665;DHT22;26679;50.872;4.332;2024-02-21T09:45:23;22.10;73.20
39665;DHT22;26679;50.872;4.332;2024-02-21T09:50:20;22.20;73.40
39665;DHT22;26679;50.872;4.332;2024-02-21T09:52:46;22.20;73.50
39665;DHT22;26679;50.872;4.332;2024-02-21T09:55:13;22.20;73.50
39665;DHT22;26679;50.872;4.332;2024-02-21T09:57:39;22.20;73.40
39665;DHT22;26679;50.872;4.332;2024-02-21T10:00:05;22.20;73.20
39665;DHT22;26679;50.872;4.332;2024-02-21T10:02:33;22.10;73.00
39665;DHT22;26679;50.872;4.332;2024-02-21T10:04:59;22.10;72.60
39665;DHT22;26679;50.872;4.332;2024-02-21T10:07:24;22.10;72.40
39665;DHT22;26679;50.872;4.332;2024-02-21T10:10:03;22.10;72.20
39665;DHT22;26679;50.872;4.332;2024-02-21T10:12:29;22.00;71.90
39665;DHT22;26679;50.872;4.332;2024-02-21T10:15:04;22.00;71.60
39665;DHT22;26679;50.872;4.332;2024-02-21T10:17:31;22.00;71.20
39665;DHT22;26679;50.872;4.332;2024-02-21T10:20:06;22.00;70.90
39665;DHT22;26679;50.872;4.332;2024-02-21T10:22:32;22.00;70.80
39665;DHT22;26679;50.872;4.332;2024-02-21T10:25:10;22.10;70.70
39665;DHT22;26679;50.872;4.332;2024-02-21T10:27:36;22.00;70.50
39665;DHT22;26679;50.872;4.332;2024-02-21T10:30:02;22.10;70.40
39665;DHT22;26679;50.872;4.332;2024-02-21T10:32:27;22.10;70.30
39665;DHT22;26679;50.872;4.332;2024-02-21T10:35:00;22.10;70.20
39665;DHT22;26679;50.872;4.332;2024-02-21T10:37:26;22.10;70.10
39665;DHT22;26679;50.872;4.332;2024-02-21T10:39:53;22.10;70.00
39665;DHT22;26679;50.872;4.332;2024-02-21T10:42:18;22.10;70.00
39665;DHT22;26679;50.872;4.332;2024-02-21T10:44:46;22.10;69.90
39665;DHT22;26679;50.872;4.332;2024-02-21T10:47:15;22.10;69.90
39665;DHT22;26679;50.872;4.332;2024-02-21T10:49:45;21.50;69.40
39665;DHT22;26679;50.872;4.332;2024-02-21T10:54:48;22.20;69.60
39665;DHT22;26679;50.872;4.332;2024-02-21T10:57:16;22.20;69.50
39665;DHT22;26679;50.872;4.332;2024-02-21T10:59:41;22.30;69.50
39665;DHT22;26679;50.872;4.332;2024-02-21T11:02:07;22.30;69.40
39665;DHT22;26679;50.872;4.332;2024-02-21T11:04:33;22.30;69.20
39665;DHT22;26679;50.872;4.332;2024-02-21T11:07:03;22.40;69.20
39665;DHT22;26679;50.872;4.332;2024-02-21T11:09:29;22.30;69.10
39665;DHT22;26679;50.872;4.332;2024-02-21T11:11:56;22.30;69.00
39665;DHT22;26679;50.872;4.332;2024-02-21T11:14:25;22.30;69.00
39665;DHT22;26679;50.872;4.332;2024-02-21T11:16:51;22.30;69.00
39665;DHT22;26679;50.872;4.332;2024-02-21T11:19:24;22.30;68.90
39665;DHT22;26679;50.872;4.332;2024-02-21T11:21:50;22.30;68.90
39665;DHT22;26679;50.872;4.332;2024-02-21T11:24:29;22.30;68.90
39665;DHT22;26679;50.872;4.332;2024-02-21T11:26:55;22.30;68.80
39665;DHT22;26679;50.872;4.332;2024-02-21T11:29:24;22.20;68.70
39665;DHT22;26679;50.872;4.332;2024-02-21T11:31:50;22.20;68.70
39665;DHT22;26679;50.872;4.332;2024-02-21T11:34:19;22.20;68.80
39665;DHT22;26679;50.872;4.332;2024-02-21T11:36:48;22.20;68.80
39665;DHT22;26679;50.872;4.332;2024-02-21T11:41:46;22.10;68.80
39665;DHT22;26679;50.872;4.332;2024-02-21T11:44:12;22.10;68.70
39665;DHT22;26679;50.872;4.332;2024-02-21T11:46:37;22.10;68.80
39665;DHT22;26679;50.872;4.332;2024-02-21T11:49:03;22.10;68.70
39665;DHT22;26679;50.872;4.332;2024-02-21T11:51:28;22.10;68.70
39665;DHT22;26679;50.872;4.332;2024-02-21T11:53:54;22.10;68.70
39665;DHT22;26679;50.872;4.332;2024-02-21T11:56:20;22.10;68.70
39665;DHT22;26679;50.872;4.332;2024-02-21T11:58:46;22.10;68.80
39665;DHT22;26679;50.872;4.332;2024-02-21T12:01:11;22.00;68.70
39665;DHT22;26679;50.872;4.332;2024-02-21T12:03:37;22.00;68.70
39665;DHT22;26679;50.872;4.332;2024-02-21T12:06:03;22.00;68.70
39665;DHT22;26679;50.872;4.332;2024-02-21T12:08:40;22.00;68.70
39665;DHT22;26679;50.872;4.332;2024-02-21T12:11:15;22.00;68.80
39665;DHT22;26679;50.872;4.332;2024-02-21T12:13:41;22.00;68.80
39665;DHT22;26679;50.872;4.332;2024-02-21T12:16:06;22.00;68.80
39665;DHT22;26679;50.872;4.332;2024-02-21T12:18:32;22.00;68.80
39665;DHT22;26679;50.872;4.332;2024-02-21T12:20:58;22.00;68.80
39665;DHT22;26679;50.872;4.332;2024-02-21T12:23:26;22.00;68.80
39665;DHT22;26679;50.872;4.332;2024-02-21T12:25:52;21.90;68.80
39665;DHT22;26679;50.872;4.332;2024-02-21T12:28:19;21.90;68.80
39665;DHT22;26679;50.872;4.332;2024-02-21T12:30:45;21.90;68.80
39665;DHT22;26679;50.872;4.332;2024-02-21T12:33:10;21.90;68.80
39665;DHT22;26679;50.872;4.332;2024-02-21T12:35:36;21.90;68.80
39665;DHT22;26679;50.872;4.332;2024-02-21T12:38:01;21.90;68.80
39665;DHT22;26679;50.872;4.332;2024-02-21T12:40:27;21.80;68.80
39665;DHT22;26679;50.872;4.332;2024-02-21T12:43:00;21.80;68.80
39665;DHT22;26679;50.872;4.332;2024-02-21T12:45:28;21.90;69.00
39665;DHT22;26679;50.872;4.332;2024-02-21T12:47:54;21.80;69.00
39665;DHT22;26679;50.872;4.332;2024-02-21T12:50:19;21.80;69.00
39665;DHT22;26679;50.872;4.332;2024-02-21T12:52:45;21.80;69.00
39665;DHT22;26679;50.872;4.332;2024-02-21T12:55:11;21.80;69.00
39665;DHT22;26679;50.872;4.332;2024-02-21T12:57:38;21.70;69.00
39665;DHT22;26679;50.872;4.332;2024-02-21T13:00:06;21.80;69.10
39665;DHT22;26679;50.872;4.332;2024-02-21T13:02:37;21.80;69.10
39665;DHT22;26679;50.872;4.332;2024-02-21T13:05:03;21.80;69.10
39665;DHT22;26679;50.872;4.332;2024-02-21T13:07:28;21.80;69.10
39665;DHT22;26679;50.872;4.332;2024-02-21T13:09:54;21.80;69.10
39665;DHT22;26679;50.872;4.332;2024-02-21T13:12:19;21.90;69.10
39665;DHT22;26679;50.872;4.332;2024-02-21T13:14:45;21.90;69.10
39665;DHT22;26679;50.872;4.332;2024-02-21T13:17:10;21.90;69.00
39665;DHT22;26679;50.872;4.332;2024-02-21T13:19:36;21.90;69.00
39665;DHT22;26679;50.872;4.332;2024-02-21T13:22:01;21.90;69.00
39665;DHT22;26679;50.872;4.332;2024-02-21T13:24:27;21.90;69.00
39665;DHT22;26679;50.872;4.332;2024-02-21T13:26:53;21.90;69.00
39665;DHT22;26679;50.872;4.332;2024-02-21T13:29:18;21.90;69.00
39665;DHT22;26679;50.872;4.332;2024-02-21T13:31:45;21.90;69.10
39665;DHT22;26679;50.872;4.332;2024-02-21T13:34:11;21.90;69.10
39665;DHT22;26679;50.872;4.332;2024-02-21T13:36:36;21.90;69.10
39665;DHT22;26679;50.872;4.332;2024-02-21T13:39:02;21.80;69.10
39665;DHT22;26679;50.872;4.332;2024-02-21T13:41:30;21.80;69.10
39665;DHT22;26679;50.872;4.332;2024-02-21T13:43:56;21.80;69.20
39665;DHT22;26679;50.872;4.332;2024-02-21T13:46:21;21.80;69.20
39665;DHT22;26679;50.872;4.332;2024-02-21T13:48:47;21.80;69.30
39665;DHT22;26679;50.872;4.332;2024-02-21T13:51:12;21.80;69.40
39665;DHT22;26679;50.872;4.332;2024-02-21T13:53:38;21.80;69.50
39665;DHT22;26679;50.872;4.332;2024-02-21T13:56:03;21.80;69.50
39665;DHT22;26679;50.872;4.332;2024-02-21T13:58:29;21.80;69.60
39665;DHT22;26679;50.872;4.332;2024-02-21T14:00:54;21.80;69.70
39665;DHT22;26679;50.872;4.332;2024-02-21T14:03:21;21.80;69.80
39665;DHT22;26679;50.872;4.332;2024-02-21T14:05:47;21.70;69.90
39665;DHT22;26679;50.872;4.332;2024-02-21T14:08:14;21.70;70.00
39665;DHT22;26679;50.872;4.332;2024-02-21T14:10:40;21.70;70.10
39665;DHT22;26679;50.872;4.332;2024-02-21T14:13:05;21.60;70.20
39665;DHT22;26679;50.872;4.332;2024-02-21T14:15:31;21.60;70.30
39665;DHT22;26679;50.872;4.332;2024-02-21T14:17:56;21.60;70.50
39665;DHT22;26679;50.872;4.332;2024-02-21T14:20:22;21.60;70.60
39665;DHT22;26679;50.872;4.332;2024-02-21T14:22:47;21.50;70.60
39665;DHT22;26679;50.872;4.332;2024-02-21T14:25:12;21.50;70.80
39665;DHT22;26679;50.872;4.332;2024-02-21T14:27:38;21.50;71.00
39665;DHT22;26679;50.872;4.332;2024-02-21T14:30:04;21.50;71.10
39665;DHT22;26679;50.872;4.332;2024-02-21T14:32:29;21.50;71.30
39665;DHT22;26679;50.872;4.332;2024-02-21T14:34:55;21.50;71.40
39665;DHT22;26679;50.872;4.332;2024-02-21T14:37:20;21.40;71.50
39665;DHT22;26679;50.872;4.332;2024-02-21T14:39:47;21.50;71.70
39665;DHT22;26679;50.872;4.332;2024-02-21T14:42:12;21.40;71.80
39665;DHT22;26679;50.872;4.332;2024-02-21T14:44:37;21.40;71.90
39665;DHT22;26679;50.872;4.332;2024-02-21T14:47:03;21.40;72.00
39665;DHT22;26679;50.872;4.332;2024-02-21T14:49:31;21.40;72.10
39665;DHT22;26679;50.872;4.332;2024-02-21T14:51:57;21.30;72.10
39665;DHT22;26679;50.872;4.332;2024-02-21T14:54:22;21.40;72.20
39665;DHT22;26679;50.872;4.332;2024-02-21T14:56:48;21.40;72.30
39665;DHT22;26679;50.872;4.332;2024-02-21T14:59:14;21.40;72.30
39665;DHT22;26679;50.872;4.332;2024-02-21T15:01:41;21.40;72.40
39665;DHT22;26679;50.872;4.332;2024-02-21T15:04:06;21.40;72.40
39665;DHT22;26679;50.872;4.332;2024-02-21T15:06:33;21.40;72.50
39665;DHT22;26679;50.872;4.332;2024-02-21T15:09:01;21.40;72.50
39665;DHT22;26679;50.872;4.332;2024-02-21T15:11:28;21.40;72.60
39665;DHT22;26679;50.872;4.332;2024-02-21T15:13:53;21.40;72.60
39665;DHT22;26679;50.872;4.332;2024-02-21T15:16:21;21.40;72.60
39665;DHT22;26679;50.872;4.332;2024-02-21T15:18:47;21.40;72.60
39665;DHT22;26679;50.872;4.332;2024-02-21T15:21:13;21.40;72.70
39665;DHT22;26679;50.872;4.332;2024-02-21T15:23:41;21.40;72.70
39665;DHT22;26679;50.872;4.332;2024-02-21T15:26:06;21.40;72.70
39665;DHT22;26679;50.872;4.332;2024-02-21T15:28:32;21.40;72.80
39665;DHT22;26679;50.872;4.332;2024-02-21T15:30:57;21.40;72.80
39665;DHT22;26679;50.872;4.332;2024-02-21T15:33:23;21.40;72.80
39665;DHT22;26679;50.872;4.332;2024-02-21T15:35:49;21.40;72.90